Time;durP1;ratioP1;P1;durP2;ratioP2;P2;SDS_P1;SDS_P2;PMS_P1;PMS_P2;Temp;Humidity;BMP_temperature;BMP_pressure;BME280_temperature;BME280_humidity;BME280_pressure;Samples;Min_cycle;Max_cycle;Signal;HPM_P1;HPM_P2
2021/08/02 00:00:57;;;;;;;;;;;;;;;16.43;65.68;99971.34;1668747;85;20577;-78
2021/08/02 00:03:36;;;;;;;;;;;;;;;16.40;65.67;99975.88;1664226;85;20128;-78
2021/08/02 00:06:02;;;;;;;;;;;;;;;16.38;65.73;99971.19;1666880;85;20440;-78
2021/08/02 00:08:28;;;;;;;;;;;;;;;16.36;65.74;99973.88;1671169;85;20534;-78
2021/08/02 00:10:58;;;;;;;;;;;;;;;16.33;65.76;99974.03;1671075;85;20417;-78
2021/08/02 00:13:32;;;;;;;;;;;;;;;16.32;65.75;99985.84;1661461;85;20542;-78
2021/08/02 00:16:04;;;;;;;;;;;;;;;16.29;65.78;99988.14;1660898;85;20444;-78
2021/08/02 00:18:36;;;;;;;;;;;;;;;16.24;65.78;99991.44;1658404;85;20441;-78
2021/08/02 00:21:05;;;;;;;;;;;;;;;16.21;65.85;99988.98;1665573;85;20310;-78
2021/08/02 00:23:32;;;;;;;;;;;;;;;16.19;65.83;99995.58;1659101;85;20485;-79
2021/08/02 00:26:02;;;;;;;;;;;;;;;16.17;65.85;99997.88;1663403;85;20554;-78
2021/08/02 00:28:29;;;;;;;;;;;;;;;16.14;65.88;100001.94;1652539;86;20237;-78
2021/08/02 00:30:56;;;;;;;;;;;;;;;16.12;65.91;99998.09;1644513;86;20534;-78
2021/08/02 00:33:22;;;;;;;;;;;;;;;16.10;65.91;99992.14;1662019;86;20212;-78
2021/08/02 00:36:09;;;;;;;;;;;;;;;16.07;65.92;99993.59;1644066;86;20587;-78
2021/08/02 00:38:48;;;;;;;;;;;;;;;16.07;65.97;99988.84;1663553;86;20601;-78
2021/08/02 00:41:35;;;;;;;;;;;;;;;16.05;65.99;99988.06;1661718;85;20180;-78
2021/08/02 00:44:24;;;;;;;;;;;;;;;16.04;66.03;99992.44;1664624;86;20166;-78
2021/08/02 00:46:52;;;;;;;;;;;;;;;16.00;66.05;99986.98;1648344;84;20503;-78
2021/08/02 00:49:34;;;;;;;;;;;;;;;15.97;66.08;99985.83;1662048;86;20586;-78
2021/08/02 00:52:00;;;;;;;;;;;;;;;15.96;66.10;99989.81;1659027;85;20364;-78
2021/08/02 00:54:26;;;;;;;;;;;;;;;15.95;66.05;99990.73;1650231;86;20620;-78
2021/08/02 00:56:59;;;;;;;;;;;;;;;15.92;66.07;99991.72;1663141;85;20236;-78
2021/08/02 00:59:27;;;;;;;;;;;;;;;15.90;66.12;99985.73;1659355;86;20503;-78
2021/08/02 01:01:55;;;;;;;;;;;;;;;15.88;66.11;99980.59;1661715;84;20724;-78
2021/08/02 01:04:23;;;;;;;;;;;;;;;15.84;66.08;99979.05;1661226;86;20549;-78
2021/08/02 01:06:52;;;;;;;;;;;;;;;15.80;66.10;99978.81;1656954;86;20502;-78
2021/08/02 01:09:21;;;;;;;;;;;;;;;15.77;66.13;99978.95;1661765;86;20531;-78
2021/08/02 01:11:49;;;;;;;;;;;;;;;15.75;66.14;99975.57;1654871;86;121492;-78
2021/08/02 01:14:15;;;;;;;;;;;;;;;15.74;66.15;99986.92;1665465;86;20556;-78
2021/08/02 01:16:42;;;;;;;;;;;;;;;15.70;66.14;99980.62;1655519;86;20211;-78
2021/08/02 01:19:10;;;;;;;;;;;;;;;15.67;66.18;99980.77;1664859;85;20219;-78
2021/08/02 01:21:40;;;;;;;;;;;;;;;15.64;66.12;99981.75;1662004;86;20535;-78
2021/08/02 01:24:08;;;;;;;;;;;;;;;15.57;66.22;99977.77;1660837;86;20113;-78
2021/08/02 01:26:46;;;;;;;;;;;;;;;15.51;66.27;99981.47;1652987;85;20153;-78
2021/08/02 01:29:56;;;;;;;;;;;;;;;15.45;66.35;99975.70;1666052;86;20537;-78
2021/08/02 01:32:22;;;;;;;;;;;;;;;15.44;66.38;99981.37;1603490;87;20451;-78
2021/08/02 01:34:50;;;;;;;;;;;;;;;15.42;66.39;99989.71;1616265;87;20550;-78
2021/08/02 01:37:16;;;;;;;;;;;;;;;15.42;66.37;99994.08;1616202;87;20238;-78
2021/08/02 01:39:49;;;;;;;;;;;;;;;15.41;66.33;99996.30;1616517;87;20463;-78
2021/08/02 01:42:18;;;;;;;;;;;;;;;15.38;66.44;99997.28;1616670;87;20531;-78
2021/08/02 01:44:44;;;;;;;;;;;;;;;15.35;66.43;99996.57;1616515;87;20427;-78
2021/08/02 01:47:14;;;;;;;;;;;;;;;15.34;66.46;100000.94;1616172;87;20132;-78
2021/08/02 01:49:49;;;;;;;;;;;;;;;15.32;66.43;99996.25;1616245;87;20411;-78
2021/08/02 01:52:21;;;;;;;;;;;;;;;15.30;66.45;99995.93;1616244;87;20154;-78
2021/08/02 01:54:56;;;;;;;;;;;;;;;15.27;66.44;99994.77;1595284;87;20143;-78
2021/08/02 01:57:29;;;;;;;;;;;;;;;15.25;66.45;99993.53;1563578;89;20151;-78
2021/08/02 02:00:07;;;;;;;;;;;;;;;15.22;66.49;99989.31;1613682;87;20561;-78
2021/08/02 02:02:34;;;;;;;;;;;;;;;15.21;66.46;100003.70;1587863;89;20144;-78
2021/08/02 02:05:18;;;;;;;;;;;;;;;15.17;66.50;99999.55;1656376;85;20602;-78
2021/08/02 02:07:54;;;;;;;;;;;;;;;15.16;66.51;100001.76;1659667;86;20558;-78
2021/08/02 02:10:22;;;;;;;;;;;;;;;15.15;66.56;100004.81;1656006;86;20639;-78
2021/08/02 02:12:49;;;;;;;;;;;;;;;15.17;66.60;100004.75;1657200;86;20224;-78
2021/08/02 02:15:16;;;;;;;;;;;;;;;15.17;66.56;100006.90;1659539;86;20263;-78
2021/08/02 02:17:43;;;;;;;;;;;;;;;15.16;66.59;100008.27;1649504;86;20256;-78
2021/08/02 02:20:11;;;;;;;;;;;;;;;15.15;66.58;100004.81;1652101;85;20200;-78
2021/08/02 02:22:38;;;;;;;;;;;;;;;15.15;66.62;100012.63;1663747;86;20299;-78
2021/08/02 02:25:07;;;;;;;;;;;;;;;15.16;66.65;100009.57;1661809;85;20248;-78
2021/08/02 02:27:35;;;;;;;;;;;;;;;15.17;66.70;100013.41;1648896;85;20143;-78
2021/08/02 02:30:07;;;;;;;;;;;;;;;15.17;66.75;100016.47;1626557;87;20231;-78
2021/08/02 02:32:35;;;;;;;;;;;;;;;15.19;66.85;100016.79;1624044;87;20226;-78
2021/08/02 02:35:03;;;;;;;;;;;;;;;15.21;66.88;100014.97;1621789;87;20235;-78
2021/08/02 02:37:29;;;;;;;;;;;;;;;15.24;66.88;100015.28;1626975;87;20178;-78
2021/08/02 02:39:55;;;;;;;;;;;;;;;15.25;66.90;100015.67;1626447;87;20190;-78
2021/08/02 02:42:24;;;;;;;;;;;;;;;15.28;66.92;100020.75;1603416;88;20508;-78
2021/08/02 02:44:51;;;;;;;;;;;;;;;15.29;66.97;100019.84;1612832;88;20193;-78
2021/08/02 02:47:17;;;;;;;;;;;;;;;15.31;66.97;100020.61;1603377;88;20239;-78
2021/08/02 02:49:45;;;;;;;;;;;;;;;15.33;66.97;100019.23;1635776;86;20191;-78
2021/08/02 02:52:11;;;;;;;;;;;;;;;15.30;66.94;100018.08;1638282;86;20183;-78
2021/08/02 02:54:37;;;;;;;;;;;;;;;15.29;66.99;100027.65;1652478;86;20217;-78
2021/08/02 02:57:04;;;;;;;;;;;;;;;15.29;67.03;100035.92;1646525;86;20224;-78
2021/08/02 02:59:30;;;;;;;;;;;;;;;15.30;67.06;100035.00;1631883;86;20188;-78
2021/08/02 03:01:58;;;;;;;;;;;;;;;15.33;67.08;100040.08;1644243;86;20232;-78
2021/08/02 03:04:32;;;;;;;;;;;;;;;15.32;67.11;100037.94;1641570;86;20462;-78
2021/08/02 03:06:59;;;;;;;;;;;;;;;15.32;67.15;100047.51;1635768;86;20104;-78
2021/08/02 03:09:27;;;;;;;;;;;;;;;15.31;67.23;100045.81;1646493;86;20103;-78
2021/08/02 03:11:56;;;;;;;;;;;;;;;15.30;67.27;100050.18;1646847;86;20107;-78
2021/08/02 03:14:22;;;;;;;;;;;;;;;15.31;67.35;100049.72;1641023;84;20089;-78
2021/08/02 03:16:48;;;;;;;;;;;;;;;15.31;67.33;100051.02;1645964;85;20099;-78
2021/08/02 03:19:14;;;;;;;;;;;;;;;15.32;67.36;100054.86;1641879;86;20123;-78
2021/08/02 03:21:40;;;;;;;;;;;;;;;15.31;67.44;100053.63;1643578;86;20223;-78
2021/08/02 03:24:16;;;;;;;;;;;;;;;15.32;67.49;100063.13;1633746;86;20139;-78
2021/08/02 03:27:08;;;;;;;;;;;;;;;15.32;67.47;100072.25;1638272;86;20100;-78
2021/08/02 03:29:42;;;;;;;;;;;;;;;15.32;67.54;100072.25;1636783;86;20099;-78
2021/08/02 03:32:14;;;;;;;;;;;;;;;15.33;67.61;100071.34;1647010;86;20151;-78
2021/08/02 03:34:45;;;;;;;;;;;;;;;15.33;67.62;100074.79;1640555;86;20131;-78
2021/08/02 03:37:12;;;;;;;;;;;;;;;15.33;67.66;100081.30;1649089;86;20108;-78
2021/08/02 03:39:39;;;;;;;;;;;;;;;15.35;67.57;100085.14;1643506;86;20155;-78
2021/08/02 03:42:06;;;;;;;;;;;;;;;15.36;67.70;100086.84;1608001;88;20130;-78
2021/08/02 03:44:33;;;;;;;;;;;;;;;15.38;67.73;100094.13;1620005;88;20117;-78
2021/08/02 03:46:59;;;;;;;;;;;;;;;15.40;67.78;100097.52;1633105;87;20115;-78
2021/08/02 03:49:26;;;;;;;;;;;;;;;15.43;67.85;100097.38;1643238;87;20173;-78
2021/08/02 03:51:58;;;;;;;;;;;;;;;15.42;67.82;100093.92;1637035;87;20115;-78
2021/08/02 03:54:27;;;;;;;;;;;;;;;15.43;67.85;100097.38;1616968;88;20103;-78
2021/08/02 03:56:53;;;;;;;;;;;;;;;15.46;67.69;100095.94;1643098;87;20097;-78
2021/08/02 03:59:19;;;;;;;;;;;;;;;15.45;67.84;100099.00;1630816;86;20106;-78
2021/08/02 04:01:53;;;;;;;;;;;;;;;15.46;67.84;100103.30;1640414;86;20091;-78
2021/08/02 04:04:19;;;;;;;;;;;;;;;15.50;67.93;100098.80;1634624;86;20105;-78
2021/08/02 04:06:45;;;;;;;;;;;;;;;15.52;67.90;100101.73;1632570;86;20108;-78
2021/08/02 04:09:17;;;;;;;;;;;;;;;15.51;67.76;100105.25;1647553;86;20129;-78
2021/08/02 04:11:45;;;;;;;;;;;;;;;15.50;67.89;100101.41;1639714;86;20125;-78
2021/08/02 04:14:11;;;;;;;;;;;;;;;15.48;67.97;100100.63;1640124;86;20114;-78
2021/08/02 04:16:37;;;;;;;;;;;;;;;15.49;67.92;100103.62;1641021;86;20096;-78
2021/08/02 04:19:04;;;;;;;;;;;;;;;15.44;67.99;100107.73;1641833;86;20117;-78
2021/08/02 04:21:43;;;;;;;;;;;;;;;15.44;68.11;100115.55;1618764;86;20107;-78
2021/08/02 04:24:09;;;;;;;;;;;;;;;15.48;68.04;100116.27;1642513;86;20227;-78
2021/08/02 04:26:35;;;;;;;;;;;;;;;15.49;68.13;100120.10;1634517;86;20153;-78
2021/08/02 04:29:02;;;;;;;;;;;;;;;15.55;68.26;100122.90;1654150;85;20100;-78
2021/08/02 04:31:30;;;;;;;;;;;;;;;15.62;68.21;100119.10;1651443;86;20139;-78
2021/08/02 04:33:57;;;;;;;;;;;;;;;15.71;68.31;100122.61;1666284;86;20124;-78
2021/08/02 04:36:24;;;;;;;;;;;;;;;15.80;68.23;100120.05;1657361;86;20100;-78
2021/08/02 04:38:50;;;;;;;;;;;;;;;15.85;68.29;100116.77;1657028;86;20141;-78
2021/08/02 04:41:17;;;;;;;;;;;;;;;15.88;68.22;100121.39;1654300;86;20125;-78
2021/08/02 04:43:43;;;;;;;;;;;;;;;15.89;68.18;100123.54;1663969;86;20137;-78
2021/08/02 04:46:09;;;;;;;;;;;;;;;15.89;68.32;100125.69;1658994;86;20149;-78
2021/08/02 04:48:38;;;;;;;;;;;;;;;15.93;68.39;100126.85;1664493;84;20101;-78
2021/08/02 04:51:04;;;;;;;;;;;;;;;15.95;68.25;100128.94;1659364;86;20202;-78
2021/08/02 04:53:30;;;;;;;;;;;;;;;15.96;68.23;100133.23;1659553;86;20210;-78
2021/08/02 04:55:56;;;;;;;;;;;;;;;15.94;68.22;100134.61;1650873;86;20214;-78
2021/08/02 04:58:22;;;;;;;;;;;;;;;15.96;68.27;100148.42;1656329;86;20717;-78
2021/08/02 05:00:49;;;;;;;;;;;;;;;15.94;68.23;100141.58;1650869;86;20192;-78
2021/08/02 05:03:15;;;;;;;;;;;;;;;15.94;68.15;100141.58;1654895;84;20163;-78
2021/08/02 05:05:42;;;;;;;;;;;;;;;15.96;68.38;100150.19;1661996;84;37568;-78
2021/08/02 05:08:08;;;;;;;;;;;;;;;16.02;68.48;100148.14;1664981;84;20124;-78
2021/08/02 05:10:34;;;;;;;;;;;;;;;16.11;68.59;100151.63;1667483;84;20187;-78
2021/08/02 05:13:01;;;;;;;;;;;;;;;16.19;68.55;100153.40;1663062;85;20160;-78
2021/08/02 05:15:28;;;;;;;;;;;;;;;16.29;68.33;100152.52;1667417;85;20101;-78
2021/08/02 05:17:57;;;;;;;;;;;;;;;16.31;68.48;100149.37;1654217;86;20089;-78
2021/08/02 05:20:23;;;;;;;;;;;;;;;16.39;68.39;100158.99;1647191;86;20235;-78
2021/08/02 05:22:51;;;;;;;;;;;;;;;16.44;68.44;100151.80;1662799;86;20096;-78
2021/08/02 05:25:17;;;;;;;;;;;;;;;16.48;68.28;100152.49;1665249;86;20137;-78
2021/08/02 05:27:50;;;;;;;;;;;;;;;16.60;68.53;100158.89;1661456;84;20191;-78
2021/08/02 05:30:19;;;;;;;;;;;;;;;16.67;68.31;100172.89;1626852;88;20141;-78
2021/08/02 05:32:45;;;;;;;;;;;;;;;16.69;68.31;100178.88;1627600;88;20165;-78
2021/08/02 05:35:12;;;;;;;;;;;;;;;16.61;68.08;100174.48;1619798;88;20132;-78
2021/08/02 05:37:38;;;;;;;;;;;;;;;16.61;68.33;100175.79;1621494;87;20121;-78
2021/08/02 05:40:05;;;;;;;;;;;;;;;16.64;68.30;100181.30;1618395;88;20135;-78
2021/08/02 05:42:32;;;;;;;;;;;;;;;16.65;68.41;100181.25;1622011;87;20119;-78
2021/08/02 05:44:58;;;;;;;;;;;;;;;16.66;68.40;100184.25;1627261;88;20494;-78
2021/08/02 05:47:24;;;;;;;;;;;;;;;16.64;68.26;100181.30;1624200;87;20766;-78
2021/08/02 05:49:52;;;;;;;;;;;;;;;16.60;68.24;100183.69;1625713;87;20135;-78
2021/08/02 05:52:18;;;;;;;;;;;;;;;16.55;68.13;100189.98;1627781;87;20162;-78
2021/08/02 05:54:44;;;;;;;;;;;;;;;16.58;68.50;100182.92;1627542;87;20132;-78
2021/08/02 05:57:10;;;;;;;;;;;;;;;16.62;68.40;100185.31;1620538;87;20137;-78
2021/08/02 05:59:37;;;;;;;;;;;;;;;16.65;68.52;100190.39;1627386;87;20136;-78
2021/08/02 06:02:03;;;;;;;;;;;;;;;16.75;68.59;100190.80;1624176;88;20178;-78
2021/08/02 06:04:29;;;;;;;;;;;;;;;16.84;68.38;100195.58;1626110;87;20130;-78
2021/08/02 06:06:56;;;;;;;;;;;;;;;16.84;68.47;100196.42;1626564;87;20151;-78
2021/08/02 06:09:22;;;;;;;;;;;;;;;16.96;68.51;100196.29;1620430;87;20188;-78
2021/08/02 06:11:50;;;;;;;;;;;;;;;17.09;68.25;100201.30;1627786;88;20115;-78
2021/08/02 06:14:16;;;;;;;;;;;;;;;17.08;68.25;100208.75;1627989;87;20162;-78
2021/08/02 06:16:42;;;;;;;;;;;;;;;17.28;68.34;100199.05;1627185;87;20158;-78
2021/08/02 06:19:08;;;;;;;;;;;;;;;17.58;69.01;100201.42;1625511;87;20128;-78
2021/08/02 06:21:34;;;;;;;;;;;;;;;18.04;68.50;100192.48;1622952;87;20113;-78
2021/08/02 06:24:01;;;;;;;;;;;;;;;18.50;68.51;100193.42;1622555;87;20107;-78
2021/08/02 06:26:27;;;;;;;;;;;;;;;18.84;68.35;100191.91;1627736;88;20103;-78
2021/08/02 06:28:53;;;;;;;;;;;;;;;18.99;67.54;100195.91;1641384;86;20160;-78
2021/08/02 06:31:19;;;;;;;;;;;;;;;18.87;67.62;100194.83;1660361;86;21148;-78
2021/08/02 06:33:45;;;;;;;;;;;;;;;19.20;67.88;100201.69;1662150;86;20132;-78
2021/08/02 06:36:12;;;;;;;;;;;;;;;19.84;68.27;100202.15;1661559;85;20120;-78
2021/08/02 06:38:38;;;;;;;;;;;;;;;20.31;67.27;100202.28;1650891;85;20161;-78
2021/08/02 06:41:04;;;;;;;;;;;;;;;20.56;67.43;100210.80;1653162;86;20115;-78
2021/08/02 06:43:31;;;;;;;;;;;;;;;21.03;67.47;100210.81;1647356;86;20152;-78
2021/08/02 06:45:57;;;;;;;;;;;;;;;21.28;66.80;100214.85;1601450;88;20180;-78
2021/08/02 06:48:23;;;;;;;;;;;;;;;21.25;66.42;100219.00;1601105;88;20123;-78
2021/08/02 06:50:50;;;;;;;;;;;;;;;21.21;66.63;100214.02;1625562;87;20131;-78
2021/08/02 06:53:16;;;;;;;;;;;;;;;21.52;67.09;100222.86;1661574;86;20331;-78
2021/08/02 06:55:42;;;;;;;;;;;;;;;21.88;66.52;100221.27;1658352;85;20095;-78
2021/08/02 06:58:10;;;;;;;;;;;;;;;22.03;66.34;100216.29;1664527;85;20097;-78
2021/08/02 07:00:36;;;;;;;;;;;;;;;22.33;66.40;100227.78;1670058;84;20155;-78
2021/08/02 07:03:02;;;;;;;;;;;;;;;22.71;66.11;100219.73;1662900;86;20117;-78
2021/08/02 07:05:28;;;;;;;;;;;;;;;23.07;66.03;100217.05;1660348;86;20141;-78
2021/08/02 07:07:54;;;;;;;;;;;;;;;23.37;65.65;100224.47;1665011;86;20195;-78
2021/08/02 07:10:20;;;;;;;;;;;;;;;23.43;65.34;100223.98;1654036;86;20255;-78
2021/08/02 07:12:46;;;;;;;;;;;;;;;23.27;65.10;100227.91;1642071;86;20245;-78
2021/08/02 07:15:12;;;;;;;;;;;;;;;22.95;64.95;100223.22;1652056;86;20166;-78
2021/08/02 07:17:38;;;;;;;;;;;;;;;22.73;65.15;100231.02;1666631;86;20192;-78
2021/08/02 07:20:05;;;;;;;;;;;;;;;22.58;65.16;100236.91;1661916;84;20100;-78
2021/08/02 07:22:31;;;;;;;;;;;;;;;22.42;64.96;100236.32;1658977;84;20133;-78
2021/08/02 07:24:57;;;;;;;;;;;;;;;22.18;64.91;100238.92;1666269;84;20128;-78
2021/08/02 07:27:23;;;;;;;;;;;;;;;22.09;65.03;100244.83;1665830;86;20143;-78
2021/08/02 07:29:49;;;;;;;;;;;;;;;22.05;65.08;100240.25;1665478;84;20185;-78
2021/08/02 07:32:21;;;;;;;;;;;;;;;21.99;64.79;100246.38;1677018;84;20165;-78
2021/08/02 07:34:48;;;;;;;;;;;;;;;21.81;64.54;100245.88;1678325;84;20218;-78
2021/08/02 07:37:14;;;;;;;;;;;;;;;21.63;64.60;100246.66;1677313;84;20168;-78
2021/08/02 07:39:53;;;;;;;;;;;;;;;21.41;64.74;100245.94;1677077;84;20164;-78
2021/08/02 07:42:19;;;;;;;;;;;;;;;21.29;64.64;100253.83;1678208;84;20116;-78
2021/08/02 07:44:45;;;;;;;;;;;;;;;21.27;64.51;100251.30;1678518;84;20204;-78
2021/08/02 07:47:13;;;;;;;;;;;;;;;21.19;64.33;100249.61;1678301;84;20153;-78
2021/08/02 07:49:39;;;;;;;;;;;;;;;21.19;64.34;100255.34;1674097;84;20690;-78
2021/08/02 07:52:05;;;;;;;;;;;;;;;21.26;64.54;100256.19;1678113;84;20195;-78
2021/08/02 07:54:31;;;;;;;;;;;;;;;21.62;64.68;100255.50;1678060;84;20164;-78
2021/08/02 07:56:58;;;;;;;;;;;;;;;22.03;64.44;100261.05;1678409;84;20108;-78
2021/08/02 07:59:29;;;;;;;;;;;;;;;22.10;63.83;100255.73;1676391;84;20149;-78
2021/08/02 08:01:55;;;;;;;;;;;;;;;22.04;63.87;100253.05;1679523;84;20112;-81
2021/08/02 08:04:21;;;;;;;;;;;;;;;22.03;63.59;100254.00;1679329;84;20238;-82
2021/08/02 08:06:47;;;;;;;;;;;;;;;22.09;63.49;100249.63;1678585;85;20191;-82
2021/08/02 08:09:13;;;;;;;;;;;;;;;22.18;63.57;100257.36;1672636;84;20165;-82
2021/08/02 08:11:41;;;;;;;;;;;;;;;22.20;63.27;100256.78;1670019;85;20112;-81
2021/08/02 08:14:07;;;;;;;;;;;;;;;22.12;63.32;100259.09;1677794;84;20794;-81
2021/08/02 08:16:33;;;;;;;;;;;;;;;21.92;62.99;100265.70;1679953;84;20168;-81
2021/08/02 08:19:01;;;;;;;;;;;;;;;21.72;62.96;100267.09;1678553;84;20109;-81
2021/08/02 08:21:27;;;;;;;;;;;;;;;21.73;63.14;100254.30;1678890;84;20128;-81
2021/08/02 08:23:55;;;;;;;;;;;;;;;21.99;63.34;100260.86;1675796;85;20124;-82
2021/08/02 08:26:21;;;;;;;;;;;;;;;22.33;63.16;100257.60;1675316;85;21062;-82
2021/08/02 08:28:47;;;;;;;;;;;;;;;22.52;62.90;100252.31;1676064;85;20136;-82
2021/08/02 08:31:13;;;;;;;;;;;;;;;22.87;63.06;100246.70;1672395;85;20128;-78
2021/08/02 08:33:42;;;;;;;;;;;;;;;23.20;62.79;100247.31;1674700;84;20262;-78
2021/08/02 08:36:11;;;;;;;;;;;;;;;23.46;62.44;100254.57;1675034;84;20173;-82
2021/08/02 08:38:35;;;;;;;;;;;;;;;23.38;61.85;100251.70;1666798;85;20135;-82
2021/08/02 08:41:01;;;;;;;;;;;;;;;23.31;62.07;100255.27;1670860;85;20919;-82
2021/08/02 08:43:42;;;;;;;;;;;;;;;23.32;61.99;100260.07;1679337;85;20116;-82
2021/08/02 08:46:08;;;;;;;;;;;;;;;23.18;61.80;100259.77;1677530;84;20440;-82
2021/08/02 08:48:34;;;;;;;;;;;;;;;23.02;61.70;100267.97;1671887;84;20195;-82
2021/08/02 08:51:03;;;;;;;;;;;;;;;22.96;61.68;100265.78;1675713;85;20179;-83
2021/08/02 08:53:32;;;;;;;;;;;;;;;22.93;61.76;100262.52;1664934;85;20155;-83
2021/08/02 08:55:58;;;;;;;;;;;;;;;23.05;61.92;100268.22;1676690;84;20116;-83
2021/08/02 08:58:24;;;;;;;;;;;;;;;22.92;61.41;100269.59;1676892;85;20610;-83
2021/08/02 09:00:59;;;;;;;;;;;;;;;22.97;61.34;100271.42;1676808;84;20124;-84
2021/08/02 09:03:27;;;;;;;;;;;;;;;23.27;61.20;100271.44;1676127;84;20128;-84
2021/08/02 09:06:07;;;;;;;;;;;;;;;23.32;61.04;100274.11;1678554;85;20525;-84
2021/08/02 09:08:43;;;;;;;;;;;;;;;23.18;60.71;100282.20;1674407;84;20125;-84
2021/08/02 09:11:21;;;;;;;;;;;;;;;23.02;60.85;100282.47;1673613;84;20156;-83
2021/08/02 09:13:48;;;;;;;;;;;;;;;22.80;60.52;100278.42;1675062;84;20149;-83
2021/08/02 09:16:20;;;;;;;;;;;;;;;22.59;60.51;100287.83;1678336;85;20180;-83
2021/08/02 09:19:07;;;;;;;;;;;;;;;22.41;60.30;100286.86;1677069;84;20168;-84
2021/08/02 09:21:44;;;;;;;;;;;;;;;22.62;60.58;100288.93;1679044;84;20132;-84
2021/08/02 09:24:11;;;;;;;;;;;;;;;22.97;60.54;100280.65;1677818;84;20136;-84
2021/08/02 09:26:40;;;;;;;;;;;;;;;23.21;60.56;100287.72;1676017;85;20163;-84
2021/08/02 09:29:06;;;;;;;;;;;;;;;23.32;60.15;100293.89;1668595;84;20154;-84
2021/08/02 09:31:35;;;;;;;;;;;;;;;23.27;59.77;100292.08;1676159;85;20336;-84
2021/08/02 09:34:04;;;;;;;;;;;;;;;23.28;59.44;100289.80;1676990;85;20124;-84
2021/08/02 09:36:39;;;;;;;;;;;;;;;23.27;59.34;100299.98;1667128;85;20131;-84
2021/08/02 09:39:13;;;;;;;;;;;;;;;23.02;59.08;100287.75;1676253;85;20134;-84
2021/08/02 09:41:40;;;;;;;;;;;;;;;22.77;58.84;100282.09;1673238;85;20120;-84
2021/08/02 09:44:06;;;;;;;;;;;;;;;22.61;58.91;100285.92;1673047;85;20124;-84
2021/08/02 09:46:33;;;;;;;;;;;;;;;22.69;58.90;100280.95;1673193;84;20160;-83
2021/08/02 09:49:03;;;;;;;;;;;;;;;22.73;58.82;100282.42;1676725;84;20747;-83
2021/08/02 09:51:42;;;;;;;;;;;;;;;22.69;58.61;100279.63;1675030;85;20403;-83
2021/08/02 09:54:08;;;;;;;;;;;;;;;22.47;58.47;100289.53;1680943;84;20125;-83
2021/08/02 09:56:40;;;;;;;;;;;;;;;22.37;58.41;100288.49;1676363;84;20121;-83
2021/08/02 09:59:09;;;;;;;;;;;;;;;22.33;58.15;100292.33;1676554;85;20136;-83
2021/08/02 10:01:36;;;;;;;;;;;;;;;22.35;58.15;100287.31;1675613;84;20187;-83
2021/08/02 10:04:02;;;;;;;;;;;;;;;22.49;58.12;100296.86;1679293;85;20108;-83
2021/08/02 10:06:28;;;;;;;;;;;;;;;22.69;58.09;100292.34;1673883;85;20463;-83
2021/08/02 10:08:55;;;;;;;;;;;;;;;22.71;57.37;100302.77;1678713;85;20129;-83
2021/08/02 10:11:21;;;;;;;;;;;;;;;22.65;57.40;100302.73;1676885;85;20180;-83
2021/08/02 10:13:50;;;;;;;;;;;;;;;22.64;57.38;100302.84;1679204;84;20109;-83
2021/08/02 10:16:16;;;;;;;;;;;;;;;22.58;57.08;100313.81;1656720;85;20120;-83
2021/08/02 10:18:49;;;;;;;;;;;;;;;22.52;57.25;100305.86;1678350;85;20136;-83
2021/08/02 10:21:16;;;;;;;;;;;;;;;22.38;57.01;100314.73;1677257;84;20156;-83
2021/08/02 10:23:42;;;;;;;;;;;;;;;22.35;56.95;100322.88;1677851;85;20124;-83
2021/08/02 10:26:28;;;;;;;;;;;;;;;22.35;56.76;100315.45;1676807;84;20089;-83
2021/08/02 10:28:58;;;;;;;;;;;;;;;22.45;56.78;100305.92;1670714;85;20120;-83
2021/08/02 10:31:27;;;;;;;;;;;;;;;22.56;56.64;100315.23;1675782;85;20159;-83
2021/08/02 10:33:54;;;;;;;;;;;;;;;22.61;56.59;100296.47;1675489;85;20565;-83
2021/08/02 10:36:21;;;;;;;;;;;;;;;22.53;56.10;100311.50;1667398;84;20823;-83
2021/08/02 10:38:54;;;;;;;;;;;;;;;22.49;56.02;100299.97;1671447;85;20546;-83
2021/08/02 10:41:25;;;;;;;;;;;;;;;22.38;56.09;100305.98;1665848;85;20505;-83
2021/08/02 10:43:51;;;;;;;;;;;;;;;22.29;55.86;100307.50;1669098;85;20168;-83
2021/08/02 10:46:20;;;;;;;;;;;;;;;22.22;55.83;100310.19;1671218;85;20149;-83
2021/08/02 10:48:47;;;;;;;;;;;;;;;22.32;55.92;100312.56;1678647;85;20128;-83
2021/08/02 10:51:17;;;;;;;;;;;;;;;22.39;55.60;100312.94;1677428;84;20164;-83
2021/08/02 10:53:44;;;;;;;;;;;;;;;22.36;55.64;100315.79;1678266;84;20152;-83
2021/08/02 10:56:10;;;;;;;;;;;;;;;22.32;55.36;100320.45;1673430;84;20132;-83
2021/08/02 10:58:39;;;;;;;;;;;;;;;22.36;55.30;100324.53;1670973;84;20136;-83
2021/08/02 11:01:14;;;;;;;;;;;;;;;22.43;55.40;100309.98;1676395;85;20145;-83
2021/08/02 11:03:41;;;;;;;;;;;;;;;22.48;55.27;100307.50;1673215;85;20124;-84
2021/08/02 11:06:12;;;;;;;;;;;;;;;22.43;55.05;100311.30;1677788;84;20487;-83
2021/08/02 11:08:53;;;;;;;;;;;;;;;22.37;54.94;100317.48;1673905;84;20100;-83
2021/08/02 11:11:22;;;;;;;;;;;;;;;22.33;54.91;100318.19;1676596;85;20825;-83
2021/08/02 11:13:48;;;;;;;;;;;;;;;22.30;54.72;100321.52;1673263;85;20448;-83
2021/08/02 11:16:14;;;;;;;;;;;;;;;22.30;54.54;100323.67;1665885;85;20462;-83
2021/08/02 11:18:45;;;;;;;;;;;;;;;22.26;54.48;100323.99;1662965;85;20781;-83
2021/08/02 11:21:25;;;;;;;;;;;;;;;22.21;54.45;100317.72;1661219;85;20164;-83
2021/08/02 11:23:54;;;;;;;;;;;;;;;22.25;54.71;100311.77;1669554;84;20839;-83
2021/08/02 11:26:22;;;;;;;;;;;;;;;22.31;54.57;100305.60;1677909;84;20097;-83
2021/08/02 11:28:49;;;;;;;;;;;;;;;22.33;54.36;100317.35;1671143;84;20099;-83
2021/08/02 11:31:16;;;;;;;;;;;;;;;22.34;54.22;100318.56;1671327;85;20438;-83
2021/08/02 11:33:44;;;;;;;;;;;;;;;22.41;54.18;100307.09;1678824;85;20141;-83
2021/08/02 11:36:18;;;;;;;;;;;;;;;22.40;53.96;100301.45;1675262;85;20412;-83
2021/08/02 11:38:45;;;;;;;;;;;;;;;22.35;53.76;100307.08;1670042;85;20727;-83
2021/08/02 11:41:23;;;;;;;;;;;;;;;22.34;53.80;100315.92;1674030;85;20654;-83
2021/08/02 11:43:49;;;;;;;;;;;;;;;22.32;53.43;100316.51;1664110;85;20124;-83
2021/08/02 11:46:19;;;;;;;;;;;;;;;22.30;53.50;100316.25;1679395;85;20719;-83
2021/08/02 11:48:45;;;;;;;;;;;;;;;22.33;53.43;100319.52;1670489;85;20694;-83
2021/08/02 11:51:13;;;;;;;;;;;;;;;22.34;53.38;100318.56;1675097;85;20202;-83
2021/08/02 11:53:46;;;;;;;;;;;;;;;22.35;52.96;100317.61;1674133;85;20514;-83
2021/08/02 11:56:12;;;;;;;;;;;;;;;22.35;52.84;100308.87;1675632;85;20778;-83
2021/08/02 11:58:41;;;;;;;;;;;;;;;22.39;52.79;100303.72;1679466;84;20833;-83
2021/08/02 12:01:08;;;;;;;;;;;;;;;22.50;52.95;100313.03;1674754;84;21039;-83
2021/08/02 12:03:35;;;;;;;;;;;;;;;22.59;52.57;100305.80;1673886;84;20550;-83
2021/08/02 12:06:08;;;;;;;;;;;;;;;22.70;52.41;100312.95;1670569;85;20498;-83
2021/08/02 12:08:35;;;;;;;;;;;;;;;22.76;52.38;100308.08;1669530;84;20496;-83
2021/08/02 12:11:04;;;;;;;;;;;;;;;22.82;52.07;100308.16;1674085;84;20444;-83
2021/08/02 12:13:43;;;;;;;;;;;;;;;22.82;52.05;100307.31;1668302;85;20157;-83
2021/08/02 12:16:13;;;;;;;;;;;;;;;22.86;52.12;100305.66;1677553;85;20448;-83
2021/08/02 12:18:40;;;;;;;;;;;;;;;22.99;51.86;100301.64;1672386;84;20128;-83
2021/08/02 12:21:12;;;;;;;;;;;;;;;23.08;51.63;100301.81;1660819;85;20159;-83
2021/08/02 12:23:38;;;;;;;;;;;;;;;23.09;51.71;100302.17;1672642;85;20147;-83
2021/08/02 12:26:16;;;;;;;;;;;;;;;23.08;51.38;100295.69;1671532;84;20159;-83
2021/08/02 12:28:43;;;;;;;;;;;;;;;23.05;51.31;100302.52;1673834;84;20608;-83
2021/08/02 12:31:13;;;;;;;;;;;;;;;22.93;51.07;100287.58;1677635;84;20476;-83
2021/08/02 12:33:40;;;;;;;;;;;;;;;22.80;51.01;100292.08;1677105;85;20128;-83
2021/08/02 12:36:06;;;;;;;;;;;;;;;22.72;50.90;100299.19;1679490;84;20164;-83
2021/08/02 12:38:31;;;;;;;;;;;;;;;22.67;51.07;100298.67;1679470;84;20251;-83
2021/08/02 12:41:02;;;;;;;;;;;;;;;22.56;50.84;100295.48;1678906;85;21209;-83
2021/08/02 12:43:28;;;;;;;;;;;;;;;22.51;50.75;100299.38;1671348;85;20124;-83
2021/08/02 12:45:54;;;;;;;;;;;;;;;22.53;50.76;100299.64;1671627;85;20425;-83